createdAt,value
2022-10-11T00:01:55.853Z,0
2022-10-11T00:04:01.998Z,0
2022-10-11T00:06:10.243Z,0
2022-10-11T00:07:13.032Z,0
2022-10-11T00:09:20.196Z,0
2022-10-11T00:11:26.436Z,0
2022-10-11T00:13:33.078Z,0
2022-10-11T00:14:36.275Z,0
2022-10-11T00:16:42.177Z,0
2022-10-11T00:18:48.493Z,0
2022-10-11T00:20:54.536Z,0
2022-10-11T00:21:57.630Z,0
2022-10-11T00:24:03.114Z,0
2022-10-11T00:26:11.524Z,0
2022-10-11T00:28:17.272Z,0
2022-10-11T00:29:20.190Z,0
2022-10-11T00:30:23.422Z,0
2022-10-11T00:31:26.447Z,0
2022-10-11T00:33:33.109Z,0
2022-10-11T00:34:35.716Z,0
2022-10-11T00:35:38.561Z,0
2022-10-11T00:36:41.439Z,0
2022-10-11T00:38:47.558Z,0
2022-10-11T00:39:51.049Z,0
2022-10-11T00:40:54.395Z,0
2022-10-11T00:41:57.603Z,0
2022-10-11T00:44:03.824Z,0
2022-10-11T00:45:06.900Z,0
2022-10-11T00:47:13.529Z,0
2022-10-11T00:49:19.625Z,0
2022-10-11T00:50:23.083Z,0
2022-10-11T00:52:28.674Z,0
2022-10-11T00:54:34.619Z,0
2022-10-11T00:55:38.446Z,0
2022-10-11T00:57:45.327Z,0
2022-10-11T00:59:50.701Z,0
2022-10-11T01:00:54.238Z,0
2022-10-11T01:01:56.777Z,0
2022-10-11T01:02:59.304Z,0
2022-10-11T01:05:32.288Z,0
2022-10-11T01:07:36.692Z,0
2022-10-11T01:08:39.580Z,0
2022-10-11T01:09:42.385Z,0
2022-10-11T01:10:45.774Z,0
2022-10-11T01:12:52.394Z,0
2022-10-11T01:13:54.905Z,0
2022-10-11T01:14:58.072Z,0
2022-10-11T01:16:02.002Z,0
2022-10-11T01:17:05.544Z,0
2022-10-11T01:19:10.778Z,0
2022-10-11T01:21:16.585Z,0
2022-10-11T01:22:19.167Z,0
2022-10-11T01:24:25.210Z,0
2022-10-11T01:25:28.266Z,0
2022-10-11T01:27:34.504Z,0
2022-10-11T01:28:38.343Z,0
2022-10-11T01:29:40.818Z,0
2022-10-11T01:30:44.543Z,0
2022-10-11T01:31:47.611Z,0
2022-10-11T01:32:50.125Z,0
2022-10-11T01:33:53.505Z,0
2022-10-11T01:35:59.089Z,0
2022-10-11T01:37:01.527Z,0
2022-10-11T01:39:07.186Z,0
2022-10-11T01:40:10.060Z,0
2022-10-11T01:41:13.329Z,0
2022-10-11T01:42:16.491Z,0
2022-10-11T01:44:24.062Z,0
2022-10-11T01:46:30.742Z,0
2022-10-11T01:47:33.804Z,0
2022-10-11T01:49:40.739Z,0
2022-10-11T01:51:49.883Z,0
2022-10-11T01:52:53.307Z,0
2022-10-11T01:55:12.495Z,0
2022-10-11T01:56:15.055Z,0
2022-10-11T01:58:22.051Z,0
2022-10-11T01:59:25.171Z,0
2022-10-11T02:00:28.888Z,0
2022-10-11T02:01:31.990Z,0
2022-10-11T02:02:35.148Z,0
2022-10-11T02:04:41.082Z,0
2022-10-11T02:05:44.224Z,0
2022-10-11T02:06:47.494Z,0
2022-10-11T02:07:50.212Z,0
2022-10-11T02:08:53.390Z,0
2022-10-11T02:09:56.189Z,0
2022-10-11T02:10:59.918Z,0
2022-10-11T02:13:06.047Z,0
2022-10-11T02:14:09.558Z,0
2022-10-11T02:16:15.551Z,0
2022-10-11T02:18:20.913Z,0
2022-10-11T02:19:23.890Z,0
2022-10-11T02:20:25.888Z,0
2022-10-11T02:21:28.587Z,0
2022-10-11T02:23:34.524Z,0
2022-10-11T02:24:37.498Z,0
2022-10-11T02:26:43.691Z,0
2022-10-11T02:28:50.675Z,0
2022-10-11T02:29:53.653Z,0
2022-10-11T02:30:57.527Z,0
2022-10-11T02:32:00.350Z,0
2022-10-11T02:34:06.646Z,0
2022-10-11T02:35:09.740Z,0
2022-10-11T02:36:13.123Z,0
2022-10-11T02:37:16.191Z,0
2022-10-11T02:38:19.289Z,0
2022-10-11T02:39:22.091Z,0
2022-10-11T02:40:25.099Z,0
2022-10-11T02:42:31.652Z,0
2022-10-11T02:43:34.541Z,0
2022-10-11T02:45:41.259Z,0
2022-10-11T02:47:47.271Z,0
2022-10-11T02:48:50.931Z,0
2022-10-11T02:50:57.253Z,0
2022-10-11T02:53:03.307Z,0
2022-10-11T02:55:08.347Z,0
2022-10-11T02:56:11.069Z,0
2022-10-11T02:58:17.935Z,0
2022-10-11T03:00:24.333Z,0
2022-10-11T03:02:30.751Z,0
2022-10-11T03:03:33.875Z,0
2022-10-11T03:05:40.429Z,0
2022-10-11T03:07:45.466Z,0
2022-10-11T03:09:52.062Z,0
2022-10-11T03:10:55.483Z,0
2022-10-11T03:13:02.242Z,0
2022-10-11T03:15:08.319Z,0
2022-10-11T03:17:39.154Z,0
2022-10-11T03:19:45.909Z,0
2022-10-11T03:20:48.417Z,0
2022-10-11T03:22:54.592Z,0
2022-10-11T03:25:06.593Z,0
2022-10-11T03:26:10.916Z,0
2022-10-11T03:27:14.018Z,0
2022-10-11T03:28:17.601Z,0
2022-10-11T03:29:20.161Z,0
2022-10-11T03:30:22.494Z,0
2022-10-11T03:32:29.414Z,0
2022-10-11T03:34:35.472Z,0
2022-10-11T03:35:38.292Z,0
2022-10-11T03:37:44.299Z,0
2022-10-11T03:39:51.250Z,0
2022-10-11T03:41:57.384Z,0
2022-10-11T03:43:00.443Z,0
2022-10-11T03:45:06.650Z,0
2022-10-11T03:47:14.862Z,0
2022-10-11T03:49:22.348Z,0
2022-10-11T03:50:25.803Z,0
2022-10-11T03:52:32.009Z,0
2022-10-11T03:54:37.581Z,0
2022-10-11T03:56:43.841Z,0
2022-10-11T03:57:47.401Z,0
2022-10-11T03:59:53.343Z,0
2022-10-11T04:01:59.413Z,0
2022-10-11T04:04:06.396Z,0
2022-10-11T04:05:09.440Z,0
2022-10-11T04:07:16.899Z,0
2022-10-11T04:09:22.657Z,0
2022-10-11T04:11:28.343Z,0
2022-10-11T04:12:31.693Z,0
2022-10-11T04:14:37.632Z,0
2022-10-11T04:16:44.539Z,0
2022-10-11T04:18:50.575Z,0
2022-10-11T04:19:53.928Z,0
2022-10-11T04:22:00.604Z,0
2022-10-11T04:24:06.439Z,0
2022-10-11T04:26:12.425Z,0
2022-10-11T04:27:15.606Z,0
2022-10-11T04:28:19.169Z,0
2022-10-11T04:29:22.255Z,0
2022-10-11T04:31:28.366Z,0
2022-10-11T04:32:31.457Z,0
2022-10-11T04:33:34.253Z,0
2022-10-11T04:34:37.765Z,0
2022-10-11T04:36:51.415Z,0
2022-10-11T04:38:58.044Z,0
2022-10-11T04:40:01.210Z,0
2022-10-11T04:42:07.255Z,0
2022-10-11T04:44:13.438Z,0
2022-10-11T04:46:19.409Z,0
2022-10-11T04:47:22.332Z,0
2022-10-11T04:49:28.720Z,0
2022-10-11T04:51:35.674Z,0
2022-10-11T04:53:42.537Z,0
2022-10-11T04:54:45.410Z,0
2022-10-11T04:56:51.439Z,0
2022-10-11T04:58:57.387Z,0
2022-10-11T05:01:03.810Z,0
2022-10-11T05:02:06.945Z,0
2022-10-11T05:04:13.067Z,0
2022-10-11T05:06:19.004Z,0
2022-10-11T05:08:25.212Z,0
2022-10-11T05:09:28.596Z,0
2022-10-11T05:11:34.656Z,0
2022-10-11T05:13:40.703Z,0
2022-10-11T05:15:46.042Z,0
2022-10-11T05:16:49.115Z,0
2022-10-11T05:18:55.158Z,0
2022-10-11T05:21:01.274Z,0
2022-10-11T05:23:07.376Z,1
2022-10-11T05:24:10.027Z,1
2022-10-11T05:26:16.365Z,1
2022-10-11T05:28:22.439Z,2
2022-10-11T05:30:28.710Z,2
2022-10-11T05:31:31.777Z,3
2022-10-11T05:33:38.198Z,3
2022-10-11T05:35:44.454Z,4
2022-10-11T05:37:50.733Z,4
2022-10-11T05:38:53.599Z,5
2022-10-11T05:39:57.097Z,5
2022-10-11T05:41:00.754Z,6
2022-10-11T05:42:11.200Z,6
2022-10-11T05:43:15.016Z,7
2022-10-11T05:45:20.218Z,8
2022-10-11T05:46:23.362Z,8
2022-10-11T05:48:29.833Z,9
2022-10-11T05:50:35.570Z,10
2022-10-11T05:52:41.227Z,11
2022-10-11T05:53:45.026Z,12
2022-10-11T05:55:51.083Z,13
2022-10-11T05:57:57.681Z,14
2022-10-11T06:00:07.755Z,15
2022-10-11T06:01:11.806Z,16
2022-10-11T06:03:18.194Z,17
2022-10-11T06:05:25.085Z,19
2022-10-11T06:07:31.318Z,20
2022-10-11T06:08:33.864Z,21
2022-10-11T06:10:40.871Z,22
2022-10-11T06:12:48.292Z,23
2022-10-11T06:14:54.898Z,25
2022-10-11T06:15:57.995Z,25
2022-10-11T06:18:04.118Z,27
2022-10-11T06:20:09.892Z,28
2022-10-11T06:22:17.112Z,29
2022-10-11T06:23:20.810Z,30
2022-10-11T06:25:28.306Z,32
2022-10-11T06:27:33.658Z,33
2022-10-11T06:29:40.868Z,34
2022-10-11T06:30:43.468Z,35
2022-10-11T06:32:50.281Z,37
2022-10-11T06:34:56.894Z,38
2022-10-11T06:35:59.615Z,38
2022-10-11T06:37:03.516Z,39
2022-10-11T06:38:06.935Z,39
2022-10-11T06:40:12.871Z,40
2022-10-11T06:41:16.024Z,41
2022-10-11T06:42:19.752Z,42
2022-10-11T06:43:23.140Z,42
2022-10-11T06:45:28.827Z,44
2022-10-11T06:46:31.435Z,44
2022-10-11T06:47:34.526Z,45
2022-10-11T06:48:37.322Z,46
2022-10-11T06:51:02.560Z,47
2022-10-11T06:53:08.275Z,48
2022-10-11T06:54:11.097Z,49
2022-10-11T06:55:14.190Z,49
2022-10-11T06:56:17.611Z,50
2022-10-11T06:58:23.076Z,51
2022-10-11T06:59:26.834Z,52
2022-10-11T07:00:30.341Z,53
2022-10-11T07:01:33.644Z,53
2022-10-11T07:03:39.440Z,55
2022-10-11T07:04:42.237Z,56
2022-10-11T07:05:44.280Z,57
2022-10-11T07:06:47.619Z,57
2022-10-11T07:08:53.607Z,60
2022-10-11T07:09:56.492Z,60
2022-10-11T07:10:59.282Z,60
2022-10-11T07:12:02.276Z,61
2022-10-11T07:14:09.510Z,68
2022-10-11T07:16:16.542Z,102
2022-10-11T07:17:19.525Z,104
2022-10-11T07:19:26.664Z,109
2022-10-11T07:21:32.574Z,115
2022-10-11T07:23:37.572Z,121
2022-10-11T07:24:41.382Z,125
2022-10-11T07:26:47.032Z,142
2022-10-11T07:28:54.034Z,262
2022-10-11T07:31:00.799Z,411
2022-10-11T07:32:03.904Z,393
2022-10-11T07:34:10.807Z,313
2022-10-11T07:36:16.319Z,262
2022-10-11T07:38:21.450Z,233
2022-10-11T07:39:24.221Z,235
2022-10-11T07:41:30.793Z,214
2022-10-11T07:43:37.676Z,344
2022-10-11T07:45:44.738Z,484
2022-10-11T07:46:47.847Z,507
2022-10-11T07:48:53.912Z,509
2022-10-11T07:50:59.863Z,527
2022-10-11T07:53:06.451Z,537
2022-10-11T07:54:09.280Z,544
2022-10-11T07:56:14.481Z,559
2022-10-11T07:58:21.063Z,568
2022-10-11T08:00:27.588Z,583
2022-10-11T08:01:32.291Z,583
2022-10-11T08:03:38.905Z,600
2022-10-11T08:05:44.981Z,613
2022-10-11T08:06:55.433Z,620
2022-10-11T08:07:58.778Z,624
2022-10-11T08:09:01.617Z,625
2022-10-11T08:10:05.013Z,633
2022-10-11T08:11:07.945Z,641
2022-10-11T08:13:15.220Z,649
2022-10-11T08:15:21.655Z,650
2022-10-11T08:16:25.097Z,615
2022-10-11T08:18:31.131Z,573
2022-10-11T08:20:37.343Z,549
2022-10-11T08:22:43.271Z,644
2022-10-11T08:23:46.020Z,685
2022-10-11T08:25:53.213Z,688
2022-10-11T08:27:59.535Z,689
2022-10-11T08:30:06.472Z,727
2022-10-11T08:31:09.265Z,739
2022-10-11T08:33:16.213Z,682
2022-10-11T08:35:23.733Z,746
2022-10-11T08:37:29.813Z,732
2022-10-11T08:38:32.662Z,763
2022-10-11T08:40:40.192Z,784
2022-10-11T08:42:45.943Z,797
2022-10-11T08:43:49.372Z,800
2022-10-11T08:45:14.174Z,798
2022-10-11T08:46:16.996Z,759
2022-10-11T08:48:23.821Z,756
2022-10-11T08:50:30.116Z,776
2022-10-11T08:51:33.300Z,811
2022-10-11T08:53:40.443Z,828
2022-10-11T08:55:47.079Z,836
2022-10-11T08:56:50.454Z,850
2022-10-11T08:57:53.803Z,859
2022-10-11T08:58:57.293Z,865
2022-10-11T09:01:04.466Z,876
2022-10-11T09:02:07.315Z,883
2022-10-11T09:04:14.821Z,883
2022-10-11T09:05:18.308Z,883
2022-10-11T09:07:25.012Z,879
2022-10-11T09:09:30.787Z,891
2022-10-11T09:10:33.963Z,891
2022-10-11T09:12:42.606Z,895
2022-10-11T09:13:46.090Z,900
2022-10-11T09:14:49.739Z,904
2022-10-11T09:15:52.807Z,916
2022-10-11T09:17:59.089Z,936
2022-10-11T09:19:02.222Z,939
2022-10-11T09:21:09.231Z,947
2022-10-11T09:22:12.150Z,945
2022-10-11T09:24:17.808Z,948
2022-10-11T09:25:20.247Z,948
2022-10-11T09:26:23.058Z,951
2022-10-11T09:28:05.432Z,959
2022-10-11T09:30:12.094Z,980
2022-10-11T09:32:17.857Z,979
2022-10-11T09:33:21.033Z,980
2022-10-11T09:34:24.816Z,978
2022-10-11T09:35:28.171Z,975
2022-10-11T09:36:30.939Z,981
2022-10-11T09:37:34.451Z,976
2022-10-11T09:38:36.691Z,970
2022-10-11T09:40:41.649Z,982
2022-10-11T09:41:44.804Z,980
2022-10-11T09:43:51.724Z,992
2022-10-11T09:45:58.134Z,988
2022-10-11T09:47:01.129Z,1007
2022-10-11T09:49:07.126Z,1030
2022-10-11T09:51:13.727Z,1039
2022-10-11T09:52:17.419Z,1035
2022-10-11T09:54:24.258Z,1035
2022-10-11T09:56:30.787Z,1043
2022-10-11T09:58:36.836Z,1048
2022-10-11T09:59:39.908Z,1039
2022-10-11T10:01:47.028Z,1018
2022-10-11T10:03:53.148Z,1019
2022-10-11T10:04:56.629Z,1023
2022-10-11T10:07:03.396Z,1034
2022-10-11T10:09:09.877Z,1055
2022-10-11T10:10:13.228Z,1055
2022-10-11T10:12:20.035Z,1071
2022-10-11T10:13:23.525Z,1063
2022-10-11T10:15:30.156Z,1075
2022-10-11T10:17:36.577Z,1076
2022-10-11T10:18:39.696Z,1084
2022-10-11T10:20:50.358Z,1074
2022-10-11T10:22:56.762Z,1048
2022-10-11T10:23:59.618Z,1053
2022-10-11T10:26:09.624Z,1058
2022-10-11T10:28:16.402Z,1026
2022-10-11T10:29:19.242Z,1001
2022-10-11T10:31:26.042Z,976
2022-10-11T10:33:33.660Z,990
2022-10-11T10:34:36.098Z,1014
2022-10-11T10:36:42.436Z,1068
2022-10-11T10:38:54.164Z,1093
2022-10-11T10:39:57.028Z,1122
2022-10-11T10:42:02.405Z,1132
2022-10-11T10:43:05.743Z,1135
2022-10-11T10:44:09.736Z,1148
2022-10-11T10:45:23.493Z,1139
2022-10-11T10:46:27.120Z,1134
2022-10-11T10:47:30.199Z,1139
2022-10-11T10:49:56.014Z,178
2022-10-11T10:50:59.309Z,1165
2022-10-11T10:52:02.214Z,1162
2022-10-11T10:54:09.069Z,1145
2022-10-11T10:55:12.247Z,1134
2022-10-11T10:57:18.560Z,1125
2022-10-11T10:59:24.890Z,1108
2022-10-11T11:00:28.631Z,1100
2022-10-11T11:02:44.191Z,1120
2022-10-11T11:04:50.444Z,1130
2022-10-11T11:05:53.264Z,1071
2022-10-11T11:07:59.315Z,1099
2022-10-11T11:09:02.380Z,1128
2022-10-11T11:11:09.394Z,1121
2022-10-11T11:12:12.784Z,1137
2022-10-11T11:13:15.510Z,226
2022-10-11T11:14:18.893Z,1145
2022-10-11T11:15:39.327Z,1107
2022-10-11T11:16:42.717Z,355
2022-10-11T11:17:45.794Z,1135
2022-10-11T11:19:51.757Z,315
2022-10-11T11:20:55.327Z,547
2022-10-11T11:21:58.325Z,226
2022-10-11T11:23:01.202Z,345
2022-10-11T11:24:04.430Z,1122
2022-10-11T11:26:10.767Z,315
2022-10-11T11:28:17.257Z,183
2022-10-11T11:29:19.775Z,215
2022-10-11T11:31:26.097Z,1090
2022-10-11T11:33:31.121Z,1069
2022-10-11T11:34:34.269Z,1075
2022-10-11T11:36:40.876Z,169
2022-10-11T11:38:45.831Z,188
2022-10-11T11:39:48.733Z,597
2022-10-11T11:41:55.784Z,207
2022-10-11T11:44:01.747Z,1066
2022-10-11T11:45:04.822Z,1060
2022-10-11T11:47:11.429Z,1060
2022-10-11T11:48:14.314Z,477
2022-10-11T11:49:17.483Z,1069
2022-10-11T11:50:19.927Z,1054
2022-10-11T11:51:22.982Z,1040
2022-10-11T11:52:26.493Z,1032
2022-10-11T11:53:29.092Z,1019
2022-10-11T11:55:35.942Z,293
2022-10-11T11:56:38.678Z,1011
2022-10-11T11:58:44.565Z,993
2022-10-11T12:00:51.767Z,990
2022-10-11T12:01:55.468Z,304
2022-10-11T12:04:01.781Z,182
2022-10-11T12:06:07.689Z,489
2022-10-11T12:07:19.739Z,980
2022-10-11T12:09:26.166Z,955
2022-10-11T12:11:37.720Z,967
2022-10-11T12:12:40.920Z,985
2022-10-11T12:13:44.287Z,1015
2022-10-11T12:14:47.682Z,1045
2022-10-11T12:16:53.966Z,998
2022-10-11T12:17:57.120Z,330
2022-10-11T12:19:00.222Z,344
2022-10-11T12:20:03.230Z,1010
2022-10-11T12:22:11.833Z,998
2022-10-11T12:23:21.766Z,989
2022-10-11T12:24:24.634Z,446
2022-10-11T12:25:27.704Z,275
2022-10-11T12:27:34.610Z,193
2022-10-11T12:28:38.736Z,182
2022-10-11T12:30:45.366Z,130
2022-10-11T12:31:48.903Z,109
2022-10-11T12:33:54.910Z,85
2022-10-11T12:36:11.253Z,88
2022-10-11T12:37:15.364Z,85
2022-10-11T12:39:21.352Z,91
2022-10-11T12:41:27.681Z,100
2022-10-11T12:42:31.322Z,105
2022-10-11T12:43:34.794Z,103
2022-10-11T12:44:37.920Z,223
2022-10-11T12:46:45.149Z,267
2022-10-11T12:47:48.734Z,243
2022-10-11T12:49:55.530Z,214
2022-10-11T12:51:05.233Z,329
2022-10-11T12:52:08.417Z,182
2022-10-11T12:53:11.318Z,318
2022-10-11T12:54:38.263Z,156
2022-10-11T12:55:42.394Z,158
2022-10-11T12:56:45.290Z,149
2022-10-11T12:57:48.783Z,134
2022-10-11T12:58:52.275Z,110
2022-10-11T13:00:59.730Z,94
2022-10-11T13:02:02.528Z,92
2022-10-11T13:04:08.398Z,77
2022-10-11T13:05:12.013Z,72
2022-10-11T13:07:18.289Z,66
2022-10-11T13:09:23.896Z,72
2022-10-11T13:11:29.742Z,101
2022-10-11T13:12:32.820Z,100
2022-10-11T13:14:38.851Z,105
2022-10-11T13:16:44.980Z,99
2022-10-11T13:18:51.341Z,92
2022-10-11T13:19:54.448Z,97
2022-10-11T13:22:00.903Z,295
2022-10-11T13:24:06.335Z,374
2022-10-11T13:25:09.683Z,515
2022-10-11T13:27:15.546Z,545
2022-10-11T13:29:22.747Z,644
2022-10-11T13:30:25.581Z,161
2022-10-11T13:32:33.079Z,600
2022-10-11T13:34:40.389Z,595
2022-10-11T13:35:43.209Z,323
2022-10-11T13:36:46.934Z,223
2022-10-11T13:37:50.675Z,158
2022-10-11T13:39:56.455Z,174
2022-10-11T13:40:59.876Z,134
2022-10-11T13:42:02.963Z,139
2022-10-11T13:43:05.966Z,123
2022-10-11T13:45:12.094Z,136
2022-10-11T13:46:15.496Z,131
2022-10-11T13:48:22.143Z,112
2022-10-11T13:50:29.648Z,94
2022-10-11T13:51:32.645Z,90
2022-10-11T13:52:36.380Z,86
2022-10-11T13:53:38.927Z,80
2022-10-11T13:55:45.886Z,91
2022-10-11T13:56:48.958Z,100
2022-10-11T13:57:52.363Z,102
2022-10-11T13:58:56.111Z,102
2022-10-11T14:01:02.339Z,102
2022-10-11T14:02:05.766Z,102
2022-10-11T14:04:12.644Z,97
2022-10-11T14:06:19.329Z,92
2022-10-11T14:07:22.667Z,92
2022-10-11T14:08:25.487Z,90
2022-10-11T14:09:29.212Z,85
2022-10-11T14:11:36.369Z,77
2022-10-11T14:12:39.486Z,75
2022-10-11T14:14:45.187Z,67
2022-10-11T14:15:47.949Z,66
2022-10-11T14:17:54.483Z,66
2022-10-11T14:18:57.096Z,61
2022-10-11T14:20:13.579Z,59
2022-10-11T14:21:16.987Z,58
2022-10-11T14:23:23.562Z,54
2022-10-11T14:25:30.173Z,53
2022-10-11T14:26:33.507Z,51
2022-10-11T14:28:39.963Z,50
2022-10-11T14:30:24.377Z,49
2022-10-11T14:31:30.137Z,49
2022-10-11T14:33:35.845Z,47
2022-10-11T14:35:42.301Z,42
2022-10-11T14:36:45.623Z,40
2022-10-11T14:38:52.160Z,35
2022-10-11T14:40:58.222Z,32
2022-10-11T14:43:05.024Z,30
2022-10-11T14:44:08.302Z,28
2022-10-11T14:46:14.893Z,23
2022-10-11T14:48:57.966Z,20
2022-10-11T14:51:05.151Z,13
2022-10-11T14:53:11.313Z,11
2022-10-11T14:54:14.139Z,10
2022-10-11T14:55:17.570Z,9
2022-10-11T14:56:23.742Z,9
2022-10-11T14:58:30.163Z,13
2022-10-11T14:59:33.550Z,16
2022-10-11T15:00:36.266Z,17
2022-10-11T15:01:40.182Z,17
2022-10-11T15:03:45.769Z,16
2022-10-11T15:05:52.728Z,15
2022-10-11T15:06:56.358Z,15
2022-10-11T15:09:02.817Z,18
2022-10-11T15:11:09.040Z,21
2022-10-11T15:13:15.933Z,19
2022-10-11T15:14:19.415Z,18
2022-10-11T15:16:26.211Z,15
2022-10-11T15:18:31.834Z,15
2022-10-11T15:20:38.498Z,15
2022-10-11T15:21:41.679Z,14
2022-10-11T15:23:47.596Z,12
2022-10-11T15:25:56.582Z,11
2022-10-11T15:28:02.209Z,12
2022-10-11T15:29:05.664Z,11
2022-10-11T15:31:10.897Z,10
2022-10-11T15:33:17.164Z,10
2022-10-11T15:35:23.673Z,11
2022-10-11T15:36:26.869Z,11
2022-10-11T15:37:37.948Z,12
2022-10-11T15:38:41.588Z,12
2022-10-11T15:40:48.809Z,12
2022-10-11T15:42:55.167Z,13
2022-10-11T15:43:58.175Z,13
2022-10-11T15:46:07.060Z,14
2022-10-11T15:48:12.788Z,14
2022-10-11T15:50:18.728Z,14
2022-10-11T15:51:21.486Z,14
2022-10-11T15:53:27.321Z,14
2022-10-11T15:55:34.081Z,13
2022-10-11T15:57:41.022Z,13
2022-10-11T15:58:44.011Z,12
2022-10-11T16:00:49.319Z,12
2022-10-11T16:02:55.774Z,11
2022-10-11T16:05:00.555Z,11
2022-10-11T16:06:08.752Z,10
2022-10-11T16:07:12.234Z,10
2022-10-11T16:08:15.344Z,10
2022-10-11T16:10:22.337Z,9
2022-10-11T16:12:28.506Z,7
2022-10-11T16:13:31.412Z,7
2022-10-11T16:15:39.141Z,6
2022-10-11T16:17:45.368Z,6
2022-10-11T16:19:51.905Z,5
2022-10-11T16:20:54.614Z,5
2022-10-11T16:23:00.942Z,4
2022-10-11T16:25:07.326Z,3
2022-10-11T16:27:20.844Z,3
2022-10-11T16:28:25.028Z,3
2022-10-11T16:30:30.765Z,2
2022-10-11T16:32:36.710Z,2
2022-10-11T16:34:42.876Z,1
2022-10-11T16:35:45.772Z,1
2022-10-11T16:37:51.910Z,1
2022-10-11T16:39:58.681Z,0
2022-10-11T16:42:05.578Z,0
2022-10-11T16:43:10.457Z,0
2022-10-11T16:45:16.457Z,0
2022-10-11T16:47:22.550Z,0
2022-10-11T16:49:28.587Z,0
2022-10-11T16:50:40.877Z,0
2022-10-11T16:51:44.224Z,0
2022-10-11T16:52:47.685Z,0
2022-10-11T16:54:52.725Z,0
2022-10-11T16:56:59.135Z,0
2022-10-11T16:58:02.655Z,0
2022-10-11T17:00:10.055Z,0
2022-10-11T17:02:17.476Z,0
2022-10-11T17:04:23.731Z,0
2022-10-11T17:05:26.991Z,0
2022-10-11T17:07:33.924Z,0
2022-10-11T17:09:46.114Z,0
2022-10-11T17:10:49.313Z,0
2022-10-11T17:11:52.810Z,0
2022-10-11T17:12:55.271Z,0
2022-10-11T17:13:58.916Z,0
2022-10-11T17:15:02.059Z,0
2022-10-11T17:17:12.172Z,0
2022-10-11T17:19:17.909Z,0
2022-10-11T17:20:20.700Z,0
2022-10-11T17:21:23.849Z,0
2022-10-11T17:22:26.513Z,0
2022-10-11T17:24:32.488Z,0
2022-10-11T17:25:35.613Z,0
2022-10-11T17:27:41.785Z,0
2022-10-11T17:29:48.841Z,0
2022-10-11T17:31:55.239Z,0
2022-10-11T17:32:58.689Z,0
2022-10-11T17:35:05.594Z,0
2022-10-11T17:37:13.375Z,0
2022-10-11T17:39:18.247Z,0
2022-10-11T17:40:20.783Z,0
2022-10-11T17:41:32.500Z,0
2022-10-11T17:42:36.288Z,0
2022-10-11T17:44:42.361Z,0
2022-10-11T17:46:48.431Z,0
2022-10-11T17:47:51.857Z,0
2022-10-11T17:48:55.023Z,0
2022-10-11T17:49:57.819Z,0
2022-10-11T17:52:03.298Z,0
2022-10-11T17:54:09.674Z,0
2022-10-11T17:55:12.773Z,0
2022-10-11T17:56:15.382Z,0
2022-10-11T17:57:18.178Z,0
2022-10-11T17:59:24.223Z,0
2022-10-11T18:01:31.215Z,0
2022-10-11T18:02:34.393Z,0
2022-10-11T18:04:41.887Z,0
2022-10-11T18:06:47.956Z,0
2022-10-11T18:07:51.039Z,0
2022-10-11T18:08:54.372Z,0
2022-10-11T18:09:57.449Z,0
2022-10-11T18:12:03.661Z,0
2022-10-11T18:13:16.483Z,0
2022-10-11T18:14:20.122Z,0
2022-10-11T18:15:23.494Z,0
2022-10-11T18:17:29.889Z,0
2022-10-11T18:19:35.923Z,0
2022-10-11T18:21:41.975Z,0
2022-10-11T18:22:45.054Z,0
2022-10-11T18:24:50.912Z,0
2022-10-11T18:26:57.354Z,0
2022-10-11T18:29:03.239Z,0
2022-10-11T18:30:05.858Z,0
2022-10-11T18:31:17.494Z,0
2022-10-11T18:32:21.261Z,0
2022-10-11T18:34:27.872Z,0
2022-10-11T18:36:34.042Z,0
2022-10-11T18:37:37.496Z,0
2022-10-11T18:38:40.940Z,0
2022-10-11T18:39:43.267Z,0
2022-10-11T18:41:52.672Z,0
2022-10-11T18:42:55.470Z,0
2022-10-11T18:43:58.829Z,0
2022-10-11T18:45:01.619Z,0
2022-10-11T18:47:08.146Z,0
2022-10-11T18:49:14.984Z,0
2022-10-11T18:50:18.210Z,0
2022-10-11T18:52:24.859Z,0
2022-10-11T18:54:31.560Z,0
2022-10-11T18:55:34.470Z,0
2022-10-11T18:57:40.897Z,0
2022-10-11T18:59:47.969Z,0
2022-10-11T19:01:54.922Z,0
2022-10-11T19:02:57.913Z,0
2022-10-11T19:05:04.800Z,0
2022-10-11T19:07:14.667Z,0
2022-10-11T19:09:20.155Z,0
2022-10-11T19:10:23.495Z,0
2022-10-11T19:12:29.668Z,0
2022-10-11T19:14:35.255Z,0
2022-10-11T19:16:41.816Z,0
2022-10-11T19:17:44.889Z,0
2022-10-11T19:19:50.980Z,0
2022-10-11T19:21:56.250Z,0
2022-10-11T19:24:02.626Z,0
2022-10-11T19:25:05.488Z,0
2022-10-11T19:27:13.475Z,0
2022-10-11T19:29:20.825Z,0
2022-10-11T19:31:27.398Z,0
2022-10-11T19:32:30.575Z,0
2022-10-11T19:33:33.378Z,0
2022-10-11T19:34:37.045Z,0
2022-10-11T19:36:42.235Z,0
2022-10-11T19:37:45.067Z,0
2022-10-11T19:38:48.292Z,0
2022-10-11T19:39:52.021Z,0
2022-10-11T19:41:56.515Z,0
2022-10-11T19:42:59.391Z,0
2022-10-11T19:44:02.471Z,0
2022-10-11T19:45:05.595Z,0
2022-10-11T19:47:11.916Z,0
2022-10-11T19:48:15.657Z,0
2022-10-11T19:49:19.309Z,0
2022-10-11T19:50:22.704Z,0
2022-10-11T19:52:29.928Z,0
2022-10-11T19:53:33.237Z,0
2022-10-11T19:54:36.447Z,0
2022-10-11T19:55:47.199Z,0
2022-10-11T19:57:52.585Z,0
2022-10-11T19:59:58.286Z,0
2022-10-11T20:01:01.752Z,0
2022-10-11T20:03:07.537Z,0
2022-10-11T20:04:53.414Z,0
2022-10-11T20:05:57.124Z,0
2022-10-11T20:08:03.461Z,0
2022-10-11T20:09:32.747Z,0
2022-10-11T20:10:36.697Z,0
2022-10-11T20:12:47.744Z,0
2022-10-11T20:13:50.831Z,0
2022-10-11T20:15:57.332Z,0
2022-10-11T20:18:03.027Z,0
2022-10-11T20:20:09.048Z,0
2022-10-11T20:21:12.782Z,0
2022-10-11T20:23:29.116Z,0
2022-10-11T20:25:37.060Z,0
2022-10-11T20:27:43.795Z,0
2022-10-11T20:28:47.262Z,0
2022-10-11T20:30:52.895Z,0
2022-10-11T20:32:58.682Z,0
2022-10-11T20:35:04.497Z,0
2022-10-11T20:36:07.572Z,0
2022-10-11T20:38:13.048Z,0
2022-10-11T20:40:18.984Z,0
2022-10-11T20:42:31.731Z,0
2022-10-11T20:43:34.808Z,0
2022-10-11T20:45:40.526Z,0
2022-10-11T20:47:45.644Z,0
2022-10-11T20:48:48.829Z,0
2022-10-11T20:49:51.904Z,0
2022-10-11T20:50:54.620Z,0
2022-10-11T20:53:01.148Z,0
2022-10-11T20:54:04.896Z,0
2022-10-11T20:55:07.688Z,0
2022-10-11T20:56:11.062Z,0
2022-10-11T20:58:17.915Z,0
2022-10-11T21:00:23.517Z,0
2022-10-11T21:01:27.090Z,0
2022-10-11T21:03:33.283Z,0
2022-10-11T21:05:39.596Z,0
2022-10-11T21:06:42.865Z,0
2022-10-11T21:07:46.008Z,0
2022-10-11T21:08:49.776Z,0
2022-10-11T21:10:55.828Z,0
2022-10-11T21:11:58.542Z,0
2022-10-11T21:13:01.653Z,0
2022-10-11T21:14:05.666Z,0
2022-10-11T21:16:11.954Z,0
2022-10-11T21:18:18.796Z,0
2022-10-11T21:19:21.700Z,0
2022-10-11T21:21:26.950Z,0
2022-10-11T21:23:33.213Z,0
2022-10-11T21:25:40.165Z,0
2022-10-11T21:26:43.591Z,0
2022-10-11T21:28:50.299Z,0
2022-10-11T21:30:56.995Z,0
2022-10-11T21:33:02.405Z,0
2022-10-11T21:34:06.112Z,0
2022-10-11T21:36:12.716Z,0
2022-10-11T21:38:19.150Z,0
2022-10-11T21:40:25.894Z,0
2022-10-11T21:41:29.104Z,0
2022-10-11T21:43:35.405Z,0
2022-10-11T21:45:42.884Z,0
2022-10-11T21:47:16.058Z,0
2022-10-11T21:48:18.853Z,0
2022-10-11T21:49:21.841Z,0
2022-10-11T21:50:24.827Z,0
2022-10-11T21:51:27.262Z,0
2022-10-11T21:53:33.147Z,0
2022-10-11T21:54:36.486Z,0
2022-10-11T21:55:39.893Z,0
2022-10-11T21:56:43.376Z,0
2022-10-11T21:58:49.972Z,0
2022-10-11T22:00:56.267Z,0
2022-10-11T22:02:04.627Z,0
2022-10-11T22:04:10.413Z,0
2022-10-11T22:06:16.376Z,0
2022-10-11T22:08:21.857Z,0
2022-10-11T22:09:24.847Z,0
2022-10-11T22:11:31.753Z,0
2022-10-11T22:13:41.238Z,0
2022-10-11T22:15:48.220Z,0
2022-10-11T22:16:52.120Z,0
2022-10-11T22:17:55.680Z,0
2022-10-11T22:18:59.446Z,0
2022-10-11T22:21:05.524Z,0
2022-10-11T22:22:08.704Z,0
2022-10-11T22:23:11.316Z,0
2022-10-11T22:24:14.188Z,0
2022-10-11T22:26:20.352Z,0
2022-10-11T22:27:24.015Z,0
2022-10-11T22:28:27.396Z,0
2022-10-11T22:29:36.478Z,0
2022-10-11T22:30:39.838Z,0
2022-10-11T22:31:42.957Z,0
2022-10-11T22:33:49.535Z,0
2022-10-11T22:34:53.272Z,0
2022-10-11T22:36:59.017Z,0
2022-10-11T22:39:04.040Z,0
2022-10-11T22:41:10.276Z,0
2022-10-11T22:42:13.648Z,0
2022-10-11T22:44:19.682Z,0
2022-10-11T22:46:25.093Z,0
2022-10-11T22:48:31.765Z,0
2022-10-11T22:49:34.688Z,0
2022-10-11T22:51:39.226Z,0
2022-10-11T22:53:45.370Z,0
2022-10-11T22:55:50.967Z,0
2022-10-11T22:56:54.103Z,0
2022-10-11T22:58:59.873Z,0
2022-10-11T23:01:06.585Z,0
2022-10-11T23:03:13.277Z,0
2022-10-11T23:04:16.960Z,0
2022-10-11T23:06:23.558Z,0
2022-10-11T23:08:29.594Z,0
2022-10-11T23:10:35.076Z,0
2022-10-11T23:11:38.565Z,0